createdAt,value
2017-10-23T00:00:20.926Z,101049.92
2017-10-23T00:02:48.563Z,101052.56
2017-10-23T00:05:16.196Z,101049.31
2017-10-23T00:07:43.787Z,101045.80
2017-10-23T00:10:11.488Z,101047.28
2017-10-23T00:12:39.152Z,101043.11
2017-10-23T00:15:06.840Z,101034.76
2017-10-23T00:17:34.486Z,101038.79
2017-10-23T00:20:02.127Z,101041.02
2017-10-23T00:22:29.815Z,101040.87
2017-10-23T00:24:57.510Z,101037.25
2017-10-23T00:27:25.224Z,101034.47
2017-10-23T00:29:52.850Z,101034.61
2017-10-23T00:32:20.519Z,101040.13
2017-10-23T00:34:48.234Z,101043.19
2017-10-23T00:37:15.941Z,101045.55
2017-10-23T00:39:43.527Z,101043.66
2017-10-23T00:42:11.215Z,101043.33
2017-10-23T00:44:38.855Z,101042.35
2017-10-23T00:47:06.487Z,101044.03
2017-10-23T00:49:34.067Z,101043.89
2017-10-23T00:52:01.678Z,101039.72
2017-10-23T00:54:29.347Z,101040.96
2017-10-23T00:56:57.046Z,101042.08
2017-10-23T00:59:24.688Z,101046.11
2017-10-23T01:01:52.305Z,101038.17
2017-10-23T01:04:19.941Z,101042.35
2017-10-23T01:06:47.563Z,101046.02
2017-10-23T01:09:15.143Z,101036.84
2017-10-23T01:11:42.821Z,101036.69
2017-10-23T01:14:10.405Z,101037.67
2017-10-23T01:16:38.081Z,101028.08
2017-10-23T01:19:05.767Z,101030.02
2017-10-23T01:21:33.470Z,101028.12
2017-10-23T01:24:01.055Z,101024.27
2017-10-23T01:26:28.678Z,101027.34
2017-10-23T01:28:56.326Z,101019.55
2017-10-23T01:31:24.006Z,101021.95
2017-10-23T01:33:51.597Z,101026.92
2017-10-23T01:36:19.256Z,101030.54
2017-10-23T01:38:46.873Z,101032.91
2017-10-23T01:41:14.525Z,101036.84
2017-10-23T01:43:42.310Z,101033.37
2017-10-23T01:46:09.887Z,101034.52
2017-10-23T01:48:37.553Z,101035.09
2017-10-23T01:51:05.198Z,101032.03
2017-10-23T01:53:32.881Z,101032.20
2017-10-23T01:56:00.453Z,101027.20
2017-10-23T01:58:28.138Z,101033.00
2017-10-23T02:00:55.723Z,101035.79
2017-10-23T02:03:23.399Z,101029.94
2017-10-23T02:05:50.993Z,101029.15
2017-10-23T02:08:18.663Z,101032.91
2017-10-23T02:10:46.294Z,101032.08
2017-10-23T02:13:14.001Z,101030.30
2017-10-23T02:15:41.657Z,101026.13
2017-10-23T02:18:09.269Z,101030.69
2017-10-23T02:20:36.840Z,101023.17
2017-10-23T02:23:04.524Z,101019.55
2017-10-23T02:25:32.126Z,101016.44
2017-10-23T02:27:59.707Z,101012.31
2017-10-23T02:30:27.380Z,101009.73
2017-10-23T02:32:55.019Z,101012.41
2017-10-23T02:35:22.632Z,101012.70
2017-10-23T02:37:50.209Z,101010.80
2017-10-23T02:40:17.883Z,101011.95
2017-10-23T02:42:45.482Z,101012.52
2017-10-23T02:45:13.114Z,101021.27
2017-10-23T02:47:40.756Z,101022.39
2017-10-23T02:50:08.402Z,101024.76
2017-10-23T02:52:36.055Z,101021.09
2017-10-23T02:55:03.750Z,101031.66
2017-10-23T02:57:31.406Z,101032.17
2017-10-23T02:59:59.090Z,101034.96
2017-10-23T03:02:26.739Z,101029.66
2017-10-23T03:04:54.367Z,101036.63
2017-10-23T03:07:21.967Z,101033.75
2017-10-23T03:09:49.578Z,101033.47
2017-10-23T03:12:17.240Z,101036.40
2017-10-23T03:14:44.949Z,101035.98
2017-10-23T03:17:12.615Z,101037.37
2017-10-23T03:19:40.255Z,101040.33
2017-10-23T03:22:07.866Z,101042.70
2017-10-23T03:24:35.515Z,101044.09
2017-10-23T03:27:03.216Z,101039.91
2017-10-23T03:29:30.863Z,101037.42
2017-10-23T03:32:03.498Z,101036.03
2017-10-23T03:34:31.478Z,101040.37
2017-10-23T03:36:59.214Z,101035.94
2017-10-23T03:39:26.814Z,101037.04
2017-10-23T03:41:54.667Z,101039.23
2017-10-23T03:44:22.286Z,101040.33
2017-10-23T03:46:49.974Z,101044.33
2017-10-23T03:49:17.632Z,101041.41
2017-10-23T03:51:45.245Z,101037.64
2017-10-23T03:54:12.834Z,101046.83
2017-10-23T03:56:40.516Z,101044.05
2017-10-23T03:59:08.098Z,101041.41
2017-10-23T04:01:35.781Z,101042.23
2017-10-23T04:04:03.581Z,101045.67
2017-10-23T04:06:31.382Z,101045.53
2017-10-23T04:08:59.031Z,101040.23
2017-10-23T04:11:26.717Z,101049.80
2017-10-23T04:13:54.378Z,101051.46
2017-10-23T04:16:22.080Z,101049.92
2017-10-23T04:18:49.673Z,101059.48
2017-10-23T04:21:17.304Z,101059.07
2017-10-23T04:23:44.968Z,101055.73
2017-10-23T04:26:12.557Z,101056.98
2017-10-23T04:28:40.210Z,101063.38
2017-10-23T04:31:07.863Z,101061.56
2017-10-23T04:33:35.490Z,101062.40
2017-10-23T04:36:03.075Z,101058.92
2017-10-23T04:38:30.694Z,101064.13
2017-10-23T04:40:58.346Z,101064.95
2017-10-23T04:43:26.009Z,101060.64
2017-10-23T04:45:53.590Z,101060.92
2017-10-23T04:48:21.226Z,101066.34
2017-10-23T04:50:48.857Z,101061.34
2017-10-23T04:53:16.553Z,101064.95
2017-10-23T04:55:44.160Z,101068.01
2017-10-23T04:58:11.869Z,101061.16
2017-10-23T05:00:39.554Z,101068.94
2017-10-23T05:03:07.243Z,101071.55
2017-10-23T05:05:34.942Z,101070.33
2017-10-23T05:08:03.101Z,101062.81
2017-10-23T05:10:30.748Z,101065.69
2017-10-23T05:12:58.444Z,101066.52
2017-10-23T05:15:26.094Z,101064.13
2017-10-23T05:17:53.753Z,101068.57
2017-10-23T05:20:21.406Z,101063.98
2017-10-23T05:22:48.991Z,101064.30
2017-10-23T05:25:16.670Z,101069.87
2017-10-23T05:27:44.261Z,101074.04
2017-10-23T05:30:11.961Z,101068.47
2017-10-23T05:32:39.677Z,101067.50
2017-10-23T05:35:07.363Z,101069.31
2017-10-23T05:37:35.075Z,101070.28
2017-10-23T05:40:02.697Z,101070.70
2017-10-23T05:42:30.294Z,101071.08
2017-10-23T05:44:57.919Z,101074.04
2017-10-23T05:47:25.567Z,101074.45
2017-10-23T05:49:53.205Z,101073.48
2017-10-23T05:52:20.860Z,101068.47
2017-10-23T05:54:48.543Z,101071.26
2017-10-23T05:57:16.235Z,101076.27
2017-10-23T05:59:43.875Z,101079.70
2017-10-23T06:02:11.509Z,101069.96
2017-10-23T06:04:39.216Z,101076.36
2017-10-23T06:07:06.822Z,101076.22
2017-10-23T06:09:34.517Z,101080.63
2017-10-23T06:12:02.104Z,101087.13
2017-10-23T06:14:29.885Z,101083.64
2017-10-23T06:16:57.576Z,101089.62
2017-10-23T06:19:25.241Z,101088.78
2017-10-23T06:21:52.902Z,101092.96
2017-10-23T06:24:20.539Z,101092.40
2017-10-23T06:26:48.284Z,101090.83
2017-10-23T06:29:15.983Z,101101.67
2017-10-23T06:31:43.670Z,101092.03
2017-10-23T06:34:11.352Z,101097.23
2017-10-23T06:36:39.009Z,101100.80
2017-10-23T06:39:06.649Z,101108.43
2017-10-23T06:41:34.392Z,101106.98
2017-10-23T06:44:02.016Z,101105.69
2017-10-23T06:46:29.670Z,101102.59
2017-10-23T06:48:57.304Z,101109.35
2017-10-23T06:51:24.961Z,101108.47
2017-10-23T06:53:52.550Z,101114.55
2017-10-23T06:56:20.208Z,101111.77
2017-10-23T06:58:47.842Z,101115.89
2017-10-23T07:01:15.476Z,101113.11
2017-10-23T07:03:43.076Z,101107.07
2017-10-23T07:06:10.737Z,101111.94
2017-10-23T07:08:38.347Z,101116.06
2017-10-23T07:11:05.984Z,101122.75
2017-10-23T07:13:33.648Z,101129.88
2017-10-23T07:16:01.243Z,101123.05
2017-10-23T07:18:28.891Z,101131.06
2017-10-23T07:20:56.504Z,101132.13
2017-10-23T07:23:24.134Z,101127.12
2017-10-23T07:25:51.739Z,101136.17
2017-10-23T07:28:19.397Z,101132.13
2017-10-23T07:30:47.010Z,101133.67
2017-10-23T07:33:14.648Z,101138.03
2017-10-23T07:35:42.247Z,101139.78
2017-10-23T07:38:09.882Z,101140.53
2017-10-23T07:40:37.493Z,101143.39
2017-10-23T07:43:10.340Z,101140.88
2017-10-23T07:45:38.229Z,101135.98
2017-10-23T07:48:05.902Z,101136.64
2017-10-23T07:50:33.509Z,101138.52
2017-10-23T07:53:01.169Z,101145.95
2017-10-23T07:55:28.844Z,101144.20
2017-10-23T07:57:56.555Z,101149.06
2017-10-23T08:00:24.238Z,101146.70
2017-10-23T08:02:51.934Z,101139.64
2017-10-23T08:05:19.617Z,101149.05
2017-10-23T08:07:47.263Z,101147.12
2017-10-23T08:10:14.865Z,101150.96
2017-10-23T08:12:42.561Z,101147.89
2017-10-23T08:15:13.550Z,101155.46
2017-10-23T08:17:41.846Z,101158.63
2017-10-23T08:20:09.443Z,101148.87
2017-10-23T08:22:37.119Z,101157.12
2017-10-23T08:25:04.767Z,101156.02
2017-10-23T08:27:32.363Z,101154.55
2017-10-23T08:30:00.007Z,101166.09
2017-10-23T08:32:27.625Z,101152.18
2017-10-23T08:34:55.259Z,101164.72
2017-10-23T08:37:22.988Z,101158.86
2017-10-23T08:39:51.028Z,101160.97
2017-10-23T08:42:18.631Z,101161.37
2017-10-23T08:44:46.277Z,101165.89
2017-10-23T08:47:13.879Z,101167.59
2017-10-23T08:49:41.543Z,101169.96
2017-10-23T08:52:10.017Z,101171.36
2017-10-23T08:54:37.678Z,101173.73
2017-10-23T08:57:05.336Z,101163.70
2017-10-23T08:59:32.971Z,101168.78
2017-10-23T09:02:09.037Z,101170.81
2017-10-23T09:04:36.666Z,101172.91
2017-10-23T09:07:04.679Z,101172.34
2017-10-23T09:09:32.311Z,101174.24
2017-10-23T09:12:02.108Z,101177.95
2017-10-23T09:14:33.863Z,101179.78
2017-10-23T09:17:04.322Z,101176.13
2017-10-23T09:19:31.942Z,101175.72
2017-10-23T09:21:59.563Z,101182.06
2017-10-23T09:24:27.194Z,101176.73
2017-10-23T09:26:54.812Z,101184.08
2017-10-23T09:32:00.675Z,101187.35
2017-10-23T09:34:32.914Z,101187.42
2017-10-23T09:37:09.282Z,101189.12
2017-10-23T09:39:37.157Z,101190.59
2017-10-23T09:42:04.783Z,101184.62
2017-10-23T09:44:35.841Z,101191.13
2017-10-23T09:47:03.464Z,101192.95
2017-10-23T09:49:31.081Z,101191.55
2017-10-23T09:51:58.716Z,101190.15
2017-10-23T09:54:26.318Z,101197.00
2017-10-23T09:56:53.966Z,101194.20
2017-10-23T09:59:21.623Z,101197.64
2017-10-23T10:01:49.470Z,101192.34
2017-10-23T10:04:20.030Z,101206.05
2017-10-23T10:06:54.483Z,101204.41
2017-10-23T10:09:23.146Z,101206.95
2017-10-23T10:11:50.822Z,101209.75
2017-10-23T10:14:19.393Z,101214.70
2017-10-23T10:16:47.040Z,101212.25
2017-10-23T10:19:14.635Z,101216.45
2017-10-23T10:21:42.270Z,101219.66
2017-10-23T10:24:09.875Z,101225.39
2017-10-23T10:26:38.235Z,101227.66
2017-10-23T10:29:05.912Z,101226.22
2017-10-23T10:31:33.630Z,101231.52
2017-10-23T10:34:01.245Z,101236.98
2017-10-23T10:36:28.887Z,101238.03
2017-10-23T10:38:56.577Z,101240.91
2017-10-23T10:41:24.289Z,101242.30
2017-10-23T10:43:51.957Z,101243.25
2017-10-23T10:46:19.690Z,101244.65
2017-10-23T10:48:47.373Z,101246.00
2017-10-23T10:51:14.981Z,101253.80
2017-10-23T10:53:42.692Z,101246.83
2017-10-23T10:56:10.360Z,101246.34
2017-10-23T10:58:38.058Z,101252.70
2017-10-23T11:01:05.651Z,101250.82
2017-10-23T11:03:33.359Z,101252.23
2017-10-23T11:06:00.982Z,101256.01
2017-10-23T11:08:28.616Z,101252.23
2017-10-23T11:10:56.210Z,101253.00
2017-10-23T11:13:23.852Z,101247.41
2017-10-23T11:15:51.471Z,101252.08
2017-10-23T11:18:19.138Z,101246.61
2017-10-23T11:20:46.745Z,101253.05
2017-10-23T11:23:14.405Z,101251.91
2017-10-23T11:25:42.039Z,101247.59
2017-10-23T11:28:10.120Z,101250.37
2017-10-23T11:30:37.775Z,101254.89
2017-10-23T11:33:05.402Z,101255.39
2017-10-23T11:35:46.053Z,101253.45
2017-10-23T11:38:20.450Z,101250.85
2017-10-23T11:40:52.034Z,101252.68
2017-10-23T11:43:24.980Z,101251.50
2017-10-23T11:51:30.193Z,101263.98
2017-10-23T11:54:05.943Z,101260.50
2017-10-23T11:56:33.855Z,101263.98
2017-10-23T11:59:01.538Z,101264.25
2017-10-23T12:01:33.024Z,101270.22
2017-10-23T12:04:06.748Z,101270.63
2017-10-23T12:06:35.585Z,101273.23
2017-10-23T12:09:04.183Z,101275.03
2017-10-23T12:11:31.827Z,101282.02
2017-10-23T12:13:59.467Z,101277.26
2017-10-23T12:16:27.133Z,101274.96
2017-10-23T12:21:29.872Z,101273.27
2017-10-23T12:23:57.460Z,101276.78
2017-10-23T12:26:26.510Z,101279.92
2017-10-23T12:29:06.962Z,101276.23
2017-10-23T12:31:34.696Z,101284.34
2017-10-23T12:34:12.726Z,101289.14
2017-10-23T12:36:52.303Z,101292.06
2017-10-23T12:39:27.703Z,101289.31
2017-10-23T12:42:06.221Z,101287.98
2017-10-23T12:44:34.152Z,101301.71
2017-10-23T12:47:01.789Z,101299.77
2017-10-23T12:49:29.776Z,101299.73
2017-10-23T12:51:57.430Z,101297.16
2017-10-23T12:54:25.117Z,101300.34
2017-10-23T12:56:52.745Z,101301.53
2017-10-23T12:59:25.653Z,101303.41
2017-10-23T13:01:53.289Z,101308.49
2017-10-23T13:04:21.658Z,101305.26
2017-10-23T13:06:49.293Z,101309.00
2017-10-23T13:09:18.402Z,101311.37
2017-10-23T13:11:47.916Z,101313.91
2017-10-23T13:14:15.523Z,101318.84
2017-10-23T13:16:43.163Z,101324.57
2017-10-23T13:19:17.436Z,101324.03
2017-10-23T13:21:45.141Z,101316.61
2017-10-23T13:24:13.011Z,101315.72
2017-10-23T13:26:40.686Z,101323.95
2017-10-23T13:29:08.284Z,101325.16
2017-10-23T13:31:35.927Z,101322.88
2017-10-23T13:34:03.546Z,101321.16
2017-10-23T13:36:31.137Z,101323.41
2017-10-23T13:38:58.852Z,101323.95
2017-10-23T13:41:26.441Z,101333.81
2017-10-23T13:43:54.878Z,101329.73
2017-10-23T13:46:22.814Z,101332.26
2017-10-23T13:48:50.527Z,101340.45
2017-10-23T13:51:18.120Z,101333.85
2017-10-23T13:53:45.983Z,101338.55
2017-10-23T13:56:13.643Z,101343.58
2017-10-23T13:58:41.318Z,101347.56
2017-10-23T14:01:08.911Z,101351.25
2017-10-23T14:03:36.906Z,101355.34
2017-10-23T14:06:08.441Z,101356.59
2017-10-23T14:08:36.442Z,101354.09
2017-10-23T14:11:04.044Z,101354.34
2017-10-23T14:13:31.662Z,101351.07
2017-10-23T14:16:01.359Z,101357.16
2017-10-23T14:18:28.997Z,101348.95
2017-10-23T14:20:56.675Z,101356.09
2017-10-23T14:23:24.399Z,101356.50
2017-10-23T14:25:52.059Z,101359.95
2017-10-23T14:28:19.761Z,101360.61
2017-10-23T14:30:47.450Z,101360.99
2017-10-23T14:33:15.197Z,101371.52
2017-10-23T14:35:42.922Z,101372.58
2017-10-23T14:38:10.557Z,101373.23
2017-10-23T14:40:38.247Z,101379.95
2017-10-23T14:43:13.497Z,101382.21
2017-10-23T14:45:41.496Z,101391.52
2017-10-23T14:48:14.126Z,101386.25
2017-10-23T14:50:41.792Z,101391.11
2017-10-23T14:53:12.599Z,101393.36
2017-10-23T14:55:40.235Z,101388.42
2017-10-23T14:58:13.640Z,101390.02
2017-10-23T15:00:41.275Z,101392.92
2017-10-23T15:03:08.879Z,101398.83
2017-10-23T15:05:36.508Z,101400.98
2017-10-23T15:08:04.162Z,101403.53
2017-10-23T15:10:31.875Z,101406.05
2017-10-23T15:12:59.559Z,101403.86
2017-10-23T15:15:27.264Z,101405.40
2017-10-23T15:17:54.860Z,101409.59
2017-10-23T15:20:22.525Z,101414.19
2017-10-23T15:22:50.107Z,101409.59
2017-10-23T15:25:17.736Z,101410.15
2017-10-23T15:27:45.322Z,101412.84
2017-10-23T15:30:18.379Z,101412.69
2017-10-23T15:32:50.594Z,101419.33
2017-10-23T15:35:18.596Z,101412.28
2017-10-23T15:37:46.190Z,101428.93
2017-10-23T15:40:13.889Z,101430.94
2017-10-23T15:42:41.478Z,101431.97
2017-10-23T15:45:09.185Z,101431.36
2017-10-23T15:47:36.860Z,101432.48
2017-10-23T15:50:04.581Z,101433.64
2017-10-23T15:52:32.232Z,101436.33
2017-10-23T15:54:59.879Z,101441.08
2017-10-23T15:57:27.461Z,101444.28
2017-10-23T15:59:55.098Z,101442.62
2017-10-23T16:02:23.026Z,101454.75
2017-10-23T16:04:50.656Z,101451.13
2017-10-23T16:07:18.290Z,101453.68
2017-10-23T16:09:45.888Z,101452.02
2017-10-23T16:12:13.505Z,101454.80
2017-10-23T16:14:41.086Z,101462.75
2017-10-23T16:17:08.731Z,101460.56
2017-10-23T16:19:36.404Z,101472.28
2017-10-23T16:22:04.036Z,101471.72
2017-10-23T16:24:31.650Z,101470.88
2017-10-23T16:26:59.278Z,101466.84
2017-10-23T16:29:32.956Z,101478.42
2017-10-23T16:32:00.599Z,101477.02
2017-10-23T16:34:28.215Z,101478.73
2017-10-23T16:36:55.832Z,101474.98
2017-10-23T16:39:28.342Z,101481.20
2017-10-23T16:41:56.238Z,101495.44
2017-10-23T16:44:23.910Z,101493.80
2017-10-23T16:46:59.306Z,101495.06
2017-10-23T16:49:27.597Z,101504.48
2017-10-23T16:52:09.638Z,101502.40
2017-10-23T16:54:37.281Z,101511.50
2017-10-23T16:57:10.545Z,101509.17
2017-10-23T16:59:40.549Z,101515.31
2017-10-23T17:02:09.404Z,101513.54
2017-10-23T17:04:36.999Z,101515.30
2017-10-23T17:07:04.673Z,101521.16
2017-10-23T17:12:36.290Z,101531.23
2017-10-23T17:20:43.736Z,101545.45
2017-10-23T17:23:26.997Z,101542.01
2017-10-23T17:26:03.893Z,101550.94
2017-10-23T17:28:41.338Z,101563.06
2017-10-23T17:31:21.159Z,101567.00
2017-10-23T17:33:53.840Z,101566.16
2017-10-23T17:36:29.624Z,101566.45
2017-10-23T17:39:02.330Z,101568.58
2017-10-23T17:41:37.636Z,101567.59
2017-10-23T17:44:10.908Z,101577.25
2017-10-23T17:46:38.742Z,101574.61
2017-10-23T17:49:06.387Z,101585.77
2017-10-23T17:51:33.987Z,101576.98
2017-10-23T17:54:01.612Z,101591.75
2017-10-23T17:56:29.365Z,101582.55
2017-10-23T17:58:57.022Z,101584.09
2017-10-23T18:01:24.627Z,101582.87
2017-10-23T18:03:52.259Z,101586.08
2017-10-23T18:06:19.872Z,101587.89
2017-10-23T18:08:47.523Z,101589.28
2017-10-23T18:11:23.572Z,101591.52
2017-10-23T18:13:58.102Z,101593.28
2017-10-23T18:16:30.332Z,101593.05
2017-10-23T18:18:58.892Z,101602.48
2017-10-23T18:21:26.529Z,101600.26
2017-10-23T18:23:54.119Z,101598.03
2017-10-23T18:26:21.776Z,101597.51
2017-10-23T18:28:49.379Z,101601.03
2017-10-23T18:31:27.652Z,101601.44
2017-10-23T18:33:56.011Z,101604.79
2017-10-23T18:36:29.542Z,101606.19
2017-10-23T18:38:59.122Z,101610.41
2017-10-23T18:41:26.745Z,101604.55
2017-10-23T18:43:54.356Z,101609.70
2017-10-23T18:46:21.996Z,101616.16
2017-10-23T18:48:52.638Z,101613.92
2017-10-23T18:51:28.073Z,101619.50
2017-10-23T18:53:55.661Z,101624.94
2017-10-23T18:56:27.581Z,101620.75
2017-10-23T18:58:56.620Z,101624.66
2017-10-23T19:04:13.054Z,101617.16
2017-10-23T19:06:54.611Z,101618.88
2017-10-23T19:09:38.620Z,101627.90
2017-10-23T19:12:07.645Z,101629.29
2017-10-23T19:14:39.955Z,101640.30
2017-10-23T19:19:57.240Z,101643.40
2017-10-23T19:22:32.010Z,101648.55
2017-10-23T19:27:52.743Z,101666.22
2017-10-23T19:30:32.070Z,101666.64
2017-10-23T19:33:01.357Z,101674.27
2017-10-23T19:35:31.354Z,101674.55
2017-10-23T19:38:01.950Z,101674.97
2017-10-23T19:40:38.690Z,101670.06
2017-10-23T19:43:19.511Z,101672.88
2017-10-23T19:48:31.916Z,101684.59
2017-10-23T19:51:11.753Z,101684.03
2017-10-23T19:53:42.098Z,101688.77
2017-10-23T19:56:12.591Z,101683.33
2017-10-23T19:58:43.549Z,101687.37
2017-10-23T20:01:12.062Z,101689.46
2017-10-23T20:03:39.779Z,101692.11
2017-10-23T20:06:07.413Z,101703.51
2017-10-23T20:08:35.129Z,101697.27
2017-10-23T20:11:02.800Z,101701.03
2017-10-23T20:13:30.527Z,101701.87
2017-10-23T20:15:58.130Z,101708.00
2017-10-23T20:18:25.786Z,101708.56
2017-10-23T20:20:53.452Z,101707.16
2017-10-23T20:23:21.152Z,101714.45
2017-10-23T20:25:48.875Z,101712.63
2017-10-23T20:28:27.656Z,101725.17
2017-10-23T20:30:55.290Z,101729.91
2017-10-23T20:33:22.938Z,101731.87
2017-10-23T20:35:50.589Z,101735.91
2017-10-23T20:38:23.121Z,101733.95
2017-10-23T20:41:00.030Z,101739.53
2017-10-23T20:43:35.832Z,101742.15
2017-10-23T20:46:10.894Z,101746.19
2017-10-23T20:48:38.806Z,101745.63
2017-10-23T20:51:06.462Z,101746.19
2017-10-23T20:53:34.062Z,101751.48
2017-10-23T20:56:01.691Z,101755.00
2017-10-23T20:58:29.370Z,101757.38
2017-10-23T21:00:57.078Z,101752.91
2017-10-23T21:03:24.766Z,101756.84
2017-10-23T21:05:52.466Z,101763.53
2017-10-23T21:08:20.139Z,101762.31
2017-10-23T21:10:47.852Z,101765.48
2017-10-23T21:13:15.459Z,101760.92
2017-10-23T21:15:43.147Z,101763.42
2017-10-23T21:18:10.821Z,101756.48
2017-10-23T21:20:38.548Z,101768.19
2017-10-23T21:23:06.137Z,101769.89
2017-10-23T21:25:33.740Z,101774.62
2017-10-23T21:28:01.440Z,101776.16
2017-10-23T21:30:29.139Z,101780.52
2017-10-23T21:32:56.842Z,101782.18
2017-10-23T21:35:24.517Z,101783.19
2017-10-23T21:37:52.154Z,101793.66
2017-10-23T21:40:19.816Z,101785.61
2017-10-23T21:42:47.459Z,101790.63
2017-10-23T21:45:15.127Z,101789.42
2017-10-23T21:50:41.885Z,101790.87
2017-10-23T21:53:09.512Z,101794.23
2017-10-23T21:55:37.166Z,101798.86
2017-10-23T21:58:04.843Z,101793.59
2017-10-23T22:00:32.510Z,101797.91
2017-10-23T22:03:00.130Z,101798.44
2017-10-23T22:05:27.785Z,101804.01
2017-10-23T22:07:55.417Z,101815.86
2017-10-23T22:10:23.072Z,101812.03
2017-10-23T22:12:50.770Z,101816.36
2017-10-23T22:15:18.359Z,101815.08
2017-10-23T22:17:45.997Z,101811.98
2017-10-23T22:20:13.647Z,101815.19
2017-10-23T22:22:41.257Z,101820.77
2017-10-23T22:25:08.965Z,101824.53
2017-10-23T22:27:36.631Z,101828.15
2017-10-23T22:30:04.331Z,101833.17
2017-10-23T22:32:31.991Z,101839.41
2017-10-23T22:34:59.698Z,101837.05
2017-10-23T22:37:27.295Z,101832.86
2017-10-23T22:39:54.923Z,101833.56
2017-10-23T22:42:22.569Z,101834.95
2017-10-23T22:44:50.250Z,101838.41
2017-10-23T22:47:17.967Z,101837.99
2017-10-23T22:49:45.655Z,101832.84
2017-10-23T22:52:13.325Z,101837.44
2017-10-23T22:54:41.038Z,101842.59
2017-10-23T22:57:08.697Z,101827.98
2017-10-23T22:59:36.344Z,101837.46
2017-10-23T23:02:04.011Z,101843.76
2017-10-23T23:04:31.725Z,101848.49
2017-10-23T23:06:59.334Z,101854.06
2017-10-23T23:09:27.047Z,101850.44
2017-10-23T23:11:54.732Z,101856.16
2017-10-23T23:14:22.456Z,101857.55
2017-10-23T23:16:50.119Z,101863.12
2017-10-23T23:19:17.789Z,101863.95
2017-10-23T23:21:45.485Z,101871.09
2017-10-23T23:24:13.085Z,101881.40
2017-10-23T23:26:40.784Z,101882.79
2017-10-23T23:29:08.480Z,101882.06
2017-10-23T23:31:36.110Z,101887.09
2017-10-23T23:34:03.773Z,101892.52
2017-10-23T23:36:31.471Z,101893.08
2017-10-23T23:38:59.161Z,101887.09
2017-10-23T23:41:26.890Z,101881.20
2017-10-23T23:43:54.550Z,101881.63
2017-10-23T23:46:22.239Z,101875.63
2017-10-23T23:48:49.896Z,101873.16
2017-10-23T23:51:17.526Z,101873.70
2017-10-23T23:53:45.190Z,101873.29
2017-10-23T23:56:12.888Z,101874.43
2017-10-23T23:58:40.556Z,101874.27
